createdAt,value
2017-06-09T00:00:00.246Z,931.75
2017-06-09T00:00:28.223Z,931.76
2017-06-09T00:00:56.410Z,931.77
2017-06-09T00:01:24.914Z,931.77
2017-06-09T00:01:53.114Z,931.76
2017-06-09T00:02:21.300Z,931.76
2017-06-09T00:02:49.388Z,931.77
2017-06-09T00:03:17.576Z,931.75
2017-06-09T00:03:45.817Z,931.75
2017-06-09T00:04:14.002Z,931.81
2017-06-09T00:04:41.976Z,931.76
2017-06-09T00:05:10.134Z,931.75
2017-06-09T00:05:38.200Z,931.79
2017-06-09T00:06:06.343Z,931.75
2017-06-09T00:06:34.427Z,931.77
2017-06-09T00:07:02.395Z,931.75
2017-06-09T00:07:30.496Z,931.75
2017-06-09T00:07:58.476Z,931.78
2017-06-09T00:08:26.642Z,931.79
2017-06-09T00:08:54.814Z,931.82
2017-06-09T00:09:23.022Z,931.77
2017-06-09T00:09:51.106Z,931.79
2017-06-09T00:10:19.272Z,931.8
2017-06-09T00:10:47.439Z,931.77
2017-06-09T00:11:15.620Z,931.8
2017-06-09T00:11:43.803Z,931.82
2017-06-09T00:12:11.986Z,931.84
2017-06-09T00:12:40.156Z,931.85
2017-06-09T00:13:08.348Z,931.82
2017-06-09T00:13:36.421Z,931.82
2017-06-09T00:14:04.583Z,931.83
2017-06-09T00:14:32.670Z,931.85
2017-06-09T00:15:00.886Z,931.84
2017-06-09T00:15:28.981Z,931.87
2017-06-09T00:15:57.042Z,931.81
2017-06-09T00:16:25.134Z,931.85
2017-06-09T00:16:53.303Z,931.82
2017-06-09T00:17:21.277Z,931.86
2017-06-09T00:17:49.379Z,931.86
2017-06-09T00:18:17.462Z,931.84
2017-06-09T00:18:45.625Z,931.86
2017-06-09T00:19:13.737Z,931.82
2017-06-09T00:19:41.940Z,931.82
2017-06-09T00:20:10.012Z,931.8
2017-06-09T00:20:38.167Z,931.83
2017-06-09T00:21:06.224Z,931.82
2017-06-09T00:21:34.304Z,931.77
2017-06-09T00:22:02.395Z,931.77
2017-06-09T00:22:30.593Z,931.76
2017-06-09T00:22:58.776Z,931.81
2017-06-09T00:23:26.927Z,931.76
2017-06-09T00:23:55.023Z,931.79
2017-06-09T00:24:23.223Z,931.75
2017-06-09T00:24:51.419Z,931.75
2017-06-09T00:25:19.513Z,931.78
2017-06-09T00:25:47.610Z,931.76
2017-06-09T00:26:15.759Z,931.76
2017-06-09T00:26:43.903Z,931.76
2017-06-09T00:27:12.112Z,931.79
2017-06-09T00:27:40.211Z,931.76
2017-06-09T00:28:08.328Z,931.8
2017-06-09T00:28:36.420Z,931.76
2017-06-09T00:29:04.305Z,931.82
2017-06-09T00:29:32.543Z,931.8
2017-06-09T00:30:00.618Z,931.79
2017-06-09T00:30:28.729Z,931.79
2017-06-09T00:30:56.803Z,931.81
2017-06-09T00:31:24.874Z,931.86
2017-06-09T00:31:53.029Z,931.85
2017-06-09T00:32:21.163Z,931.86
2017-06-09T00:32:49.355Z,931.8
2017-06-09T00:33:17.334Z,931.83
2017-06-09T00:33:45.504Z,931.82
2017-06-09T00:34:13.650Z,931.88
2017-06-09T00:34:41.781Z,931.83
2017-06-09T00:35:09.876Z,931.87
2017-06-09T00:35:37.957Z,931.89
2017-06-09T00:36:48.906Z,931.87
2017-06-09T00:37:16.984Z,931.85
2017-06-09T00:37:45.074Z,931.85
2017-06-09T00:38:13.248Z,931.86
2017-06-09T00:38:41.435Z,931.88
2017-06-09T00:39:09.616Z,931.88
2017-06-09T00:39:37.734Z,931.88
2017-06-09T00:40:05.813Z,931.91
2017-06-09T00:40:33.995Z,931.91
2017-06-09T00:41:02.186Z,931.91
2017-06-09T00:41:30.369Z,931.92
2017-06-09T00:41:58.453Z,931.94
2017-06-09T00:42:26.622Z,931.96
2017-06-09T00:42:54.801Z,931.94
2017-06-09T00:43:22.878Z,931.97
2017-06-09T00:43:51.050Z,931.98
2017-06-09T00:44:19.205Z,931.99
2017-06-09T00:44:47.380Z,932.01
2017-06-09T00:45:15.529Z,932.02
2017-06-09T00:45:43.610Z,932.01
2017-06-09T00:46:11.792Z,931.98
2017-06-09T00:46:39.951Z,931.97
2017-06-09T00:47:07.979Z,931.96
2017-06-09T00:47:36.131Z,931.97
2017-06-09T00:48:04.134Z,931.97
2017-06-09T00:48:32.299Z,931.93
2017-06-09T00:49:00.476Z,931.96
2017-06-09T00:49:28.667Z,931.95
2017-06-09T00:49:56.625Z,931.9
2017-06-09T00:50:24.817Z,931.94
2017-06-09T00:50:52.927Z,931.94
2017-06-09T00:51:21.073Z,931.94
2017-06-09T00:51:49.255Z,931.93
2017-06-09T00:52:17.316Z,931.95
2017-06-09T00:52:45.503Z,931.96
2017-06-09T00:53:13.642Z,931.95
2017-06-09T00:53:41.730Z,931.97
2017-06-09T00:54:09.705Z,931.99
2017-06-09T00:54:37.817Z,932.02
2017-06-09T00:55:06.019Z,932.01
2017-06-09T00:55:34.112Z,931.96
2017-06-09T00:56:02.185Z,931.98
2017-06-09T00:56:30.246Z,932.04
2017-06-09T00:56:58.441Z,932.04
2017-06-09T00:57:26.600Z,932.08
2017-06-09T00:57:54.682Z,932.04
2017-06-09T00:58:22.830Z,932.07
2017-06-09T00:58:50.938Z,932.06
2017-06-09T00:59:19.107Z,932.07
2017-06-09T00:59:47.301Z,932.15
2017-06-09T01:00:15.677Z,932.1
2017-06-09T01:00:43.755Z,932.1
2017-06-09T01:01:11.818Z,932.1
2017-06-09T01:01:39.911Z,932.09
2017-06-09T01:02:08.115Z,932.1
2017-06-09T01:02:36.197Z,932.08
2017-06-09T01:03:04.265Z,932.07
2017-06-09T01:03:32.431Z,932.1
2017-06-09T01:04:00.632Z,932.09
2017-06-09T01:04:28.634Z,932.11
2017-06-09T01:04:56.781Z,932.09
2017-06-09T01:05:24.939Z,932.07
2017-06-09T01:05:53.097Z,932.1
2017-06-09T01:06:21.249Z,932.06
2017-06-09T01:06:49.422Z,932.07
2017-06-09T01:07:17.461Z,932.09
2017-06-09T01:07:45.546Z,932.05
2017-06-09T01:08:13.624Z,932.03
2017-06-09T01:08:41.713Z,932.03
2017-06-09T01:09:09.887Z,932.03
2017-06-09T01:09:38.051Z,932.03
2017-06-09T01:10:06.229Z,932.04
2017-06-09T01:10:34.407Z,932.08
2017-06-09T01:11:02.575Z,932.07
2017-06-09T01:11:30.774Z,932.06
2017-06-09T01:11:58.864Z,932.03
2017-06-09T01:12:26.924Z,932.08
2017-06-09T01:12:55.083Z,932.1
2017-06-09T01:13:23.153Z,932.11
2017-06-09T01:13:51.334Z,932.12
2017-06-09T01:14:19.451Z,932.11
2017-06-09T01:14:47.602Z,932.09
2017-06-09T01:15:15.751Z,932.12
2017-06-09T01:15:43.923Z,932.09
2017-06-09T01:16:12.106Z,932.09
2017-06-09T01:16:40.213Z,932.12
2017-06-09T01:17:08.412Z,932.07
2017-06-09T01:17:36.394Z,932.13
2017-06-09T01:18:04.591Z,932.12
2017-06-09T01:18:32.780Z,932.13
2017-06-09T01:19:00.872Z,932.15
2017-06-09T01:19:28.948Z,932.14
2017-06-09T01:19:57.150Z,932.14
2017-06-09T01:20:25.221Z,932.19
2017-06-09T01:20:53.395Z,932.15
2017-06-09T01:21:21.460Z,932.15
2017-06-09T01:21:49.533Z,932.19
2017-06-09T01:22:17.558Z,932.18
2017-06-09T01:22:45.725Z,932.15
2017-06-09T01:23:13.783Z,932.2
2017-06-09T01:23:41.952Z,932.22
2017-06-09T01:24:10.032Z,932.2
2017-06-09T01:24:38.097Z,932.2
2017-06-09T01:25:06.260Z,932.19
2017-06-09T01:25:34.440Z,932.2
2017-06-09T01:26:02.600Z,932.2
2017-06-09T01:26:30.739Z,932.23
2017-06-09T01:26:58.806Z,932.2
2017-06-09T01:27:26.889Z,932.18
2017-06-09T01:27:54.949Z,932.2
2017-06-09T01:28:22.855Z,932.2
2017-06-09T01:28:50.934Z,932.16
2017-06-09T01:29:19.128Z,932.14
2017-06-09T01:29:47.223Z,932.18
2017-06-09T01:30:15.408Z,932.17
2017-06-09T01:30:43.589Z,932.19
2017-06-09T01:31:11.743Z,932.2
2017-06-09T01:31:39.813Z,932.23
2017-06-09T01:32:08.003Z,932.26
2017-06-09T01:32:36.082Z,932.23
2017-06-09T01:33:04.084Z,932.23
2017-06-09T01:33:32.161Z,932.25
2017-06-09T01:34:00.352Z,932.25
2017-06-09T01:34:28.455Z,932.31
2017-06-09T01:34:56.626Z,932.32
2017-06-09T01:35:24.790Z,932.29
2017-06-09T01:35:52.870Z,932.29
2017-06-09T01:36:21.052Z,932.35
2017-06-09T01:36:49.212Z,932.37
2017-06-09T01:37:17.399Z,932.35
2017-06-09T01:37:45.380Z,932.36
2017-06-09T01:38:13.550Z,932.33
2017-06-09T01:38:41.502Z,932.36
2017-06-09T01:39:09.680Z,932.39
2017-06-09T01:39:37.762Z,932.43
2017-06-09T01:40:05.844Z,932.42
2017-06-09T01:40:34.019Z,932.45
2017-06-09T01:41:02.212Z,932.47
2017-06-09T01:41:30.284Z,932.47
2017-06-09T01:41:58.349Z,932.46
2017-06-09T01:42:26.422Z,932.5
2017-06-09T01:42:54.596Z,932.49
2017-06-09T01:43:22.795Z,932.49
2017-06-09T01:43:50.965Z,932.49
2017-06-09T01:44:19.034Z,932.53
2017-06-09T01:44:47.214Z,932.53
2017-06-09T01:45:15.314Z,932.49
2017-06-09T01:45:43.394Z,932.5
2017-06-09T01:46:11.575Z,932.53
2017-06-09T01:46:39.774Z,932.54
2017-06-09T01:47:07.850Z,932.55
2017-06-09T01:47:35.922Z,932.51
2017-06-09T01:48:04.107Z,932.51
2017-06-09T01:48:32.305Z,932.48
2017-06-09T01:49:00.487Z,932.5
2017-06-09T01:49:28.466Z,932.51
2017-06-09T01:49:56.624Z,932.53
2017-06-09T01:50:24.703Z,932.53
2017-06-09T01:50:52.796Z,932.49
2017-06-09T01:51:20.959Z,932.48
2017-06-09T01:51:49.156Z,932.48
2017-06-09T01:52:17.332Z,932.51
2017-06-09T01:52:45.350Z,932.52
2017-06-09T01:53:13.402Z,932.56
2017-06-09T01:53:41.562Z,932.54
2017-06-09T01:54:09.719Z,932.5
2017-06-09T01:54:37.893Z,932.52
2017-06-09T01:55:06.063Z,932.49
2017-06-09T01:55:34.238Z,932.5
2017-06-09T01:56:02.425Z,932.48
2017-06-09T01:56:30.492Z,932.47
2017-06-09T01:56:58.558Z,932.46
2017-06-09T01:57:26.713Z,932.44
2017-06-09T01:57:54.861Z,932.4
2017-06-09T01:58:22.947Z,932.4
2017-06-09T01:58:51.011Z,932.38
2017-06-09T01:59:19.002Z,932.35
2017-06-09T01:59:47.142Z,932.31
2017-06-09T02:00:15.329Z,932.35
2017-06-09T02:00:43.495Z,932.34
2017-06-09T02:01:11.676Z,932.33
2017-06-09T02:01:39.821Z,932.36
2017-06-09T02:02:07.979Z,932.3
2017-06-09T02:02:36.032Z,932.29
2017-06-09T02:03:04.125Z,932.29
2017-06-09T02:03:32.102Z,932.31
2017-06-09T02:04:00.272Z,932.27
2017-06-09T02:04:28.443Z,932.32
2017-06-09T02:04:56.602Z,932.27
2017-06-09T02:05:24.760Z,932.3
2017-06-09T02:05:52.934Z,932.27
2017-06-09T02:06:21.105Z,932.3
2017-06-09T02:06:49.189Z,932.31
2017-06-09T02:07:17.355Z,932.3
2017-06-09T02:07:45.533Z,932.32
2017-06-09T02:08:13.579Z,932.34
2017-06-09T02:08:41.754Z,932.37
2017-06-09T02:09:09.825Z,932.34
2017-06-09T02:09:38.000Z,932.32
2017-06-09T02:10:06.161Z,932.33
2017-06-09T02:10:34.234Z,932.39
2017-06-09T02:11:02.409Z,932.4
2017-06-09T02:11:30.496Z,932.4
2017-06-09T02:11:58.581Z,932.4
2017-06-09T02:12:26.733Z,932.4
2017-06-09T02:12:54.913Z,932.38
2017-06-09T02:13:23.084Z,932.42
2017-06-09T02:13:51.151Z,932.41
2017-06-09T02:14:19.236Z,932.33
2017-06-09T02:14:47.382Z,932.32
2017-06-09T02:15:15.460Z,932.37
2017-06-09T02:15:43.550Z,932.33
2017-06-09T02:16:11.623Z,932.35
2017-06-09T02:16:39.801Z,932.34
2017-06-09T02:17:07.990Z,932.31
2017-06-09T02:17:36.080Z,932.35
2017-06-09T02:18:04.258Z,932.32
2017-06-09T02:18:32.453Z,932.34
2017-06-09T02:19:00.637Z,932.31
2017-06-09T02:19:28.808Z,932.28
2017-06-09T02:19:56.884Z,932.35
2017-06-09T02:20:25.085Z,932.33
2017-06-09T02:20:53.166Z,932.38
2017-06-09T02:21:21.349Z,932.33
2017-06-09T02:21:49.536Z,932.37
2017-06-09T02:22:17.692Z,932.4
2017-06-09T02:22:45.810Z,932.41
2017-06-09T02:23:13.980Z,932.41
2017-06-09T02:23:42.101Z,932.43
2017-06-09T02:24:10.158Z,932.48
2017-06-09T02:24:38.335Z,932.51
2017-06-09T02:25:06.502Z,932.5
2017-06-09T02:25:34.692Z,932.46
2017-06-09T02:26:02.776Z,932.52
2017-06-09T02:26:30.875Z,932.5
2017-06-09T02:26:59.069Z,932.5
2017-06-09T02:27:27.160Z,932.54
2017-06-09T02:27:55.337Z,932.53
2017-06-09T02:28:23.403Z,932.52
2017-06-09T02:28:51.413Z,932.48
2017-06-09T02:29:19.561Z,932.46
2017-06-09T02:29:47.747Z,932.47
2017-06-09T02:30:15.940Z,932.43
2017-06-09T02:30:44.030Z,932.42
2017-06-09T02:31:12.199Z,932.42
2017-06-09T02:31:40.372Z,932.44
2017-06-09T02:32:08.566Z,932.4
2017-06-09T02:32:36.763Z,932.4
2017-06-09T02:33:04.949Z,932.39
2017-06-09T02:33:33.142Z,932.41
2017-06-09T02:34:01.329Z,932.41
2017-06-09T02:34:29.512Z,932.39
2017-06-09T02:34:57.678Z,932.38
2017-06-09T02:35:25.845Z,932.39
2017-06-09T02:35:54.037Z,932.4
2017-06-09T02:36:22.108Z,932.41
2017-06-09T02:36:50.199Z,932.4
2017-06-09T02:37:18.395Z,932.41
2017-06-09T02:37:46.595Z,932.41
2017-06-09T02:38:14.767Z,932.44
2017-06-09T02:38:42.841Z,932.45
2017-06-09T02:39:11.025Z,932.48
2017-06-09T02:39:39.211Z,932.49
2017-06-09T02:40:07.294Z,932.48
2017-06-09T02:40:36.871Z,932.49
2017-06-09T02:41:05.190Z,932.49
2017-06-09T02:41:33.172Z,932.48
2017-06-09T02:42:01.345Z,932.47
2017-06-09T02:42:29.343Z,932.49
2017-06-09T02:42:57.446Z,932.47
2017-06-09T02:43:25.528Z,932.5
2017-06-09T02:43:53.683Z,932.48
2017-06-09T02:44:21.592Z,932.47
2017-06-09T02:44:49.585Z,932.45
2017-06-09T02:45:17.747Z,932.46
2017-06-09T02:45:45.913Z,932.44
2017-06-09T02:46:13.947Z,932.45
2017-06-09T02:46:42.118Z,932.51
2017-06-09T02:47:10.294Z,932.51
2017-06-09T02:47:38.443Z,932.5
2017-06-09T02:48:06.632Z,932.47
2017-06-09T02:48:34.737Z,932.49
2017-06-09T02:49:02.887Z,932.46
2017-06-09T02:49:31.056Z,932.42
2017-06-09T02:49:59.224Z,932.42
2017-06-09T02:50:27.202Z,932.42
2017-06-09T02:50:55.179Z,932.39
2017-06-09T02:51:23.365Z,932.42
2017-06-09T02:51:51.567Z,932.42
2017-06-09T02:52:19.724Z,932.44
2017-06-09T02:52:47.804Z,932.45
2017-06-09T02:53:16.006Z,932.47
2017-06-09T02:53:44.100Z,932.41
2017-06-09T02:54:12.295Z,932.43
2017-06-09T02:54:40.500Z,932.47
2017-06-09T02:55:08.680Z,932.48
2017-06-09T02:55:36.869Z,932.49
2017-06-09T02:56:04.947Z,932.45
2017-06-09T02:56:33.118Z,932.52
2017-06-09T02:57:01.314Z,932.51
2017-06-09T02:57:29.398Z,932.51
2017-06-09T02:57:57.482Z,932.53
2017-06-09T02:58:25.671Z,932.53
2017-06-09T02:58:53.842Z,932.5
2017-06-09T02:59:22.013Z,932.52
2017-06-09T02:59:50.209Z,932.51
2017-06-09T03:00:18.404Z,932.51
2017-06-09T03:00:46.586Z,932.54
2017-06-09T03:01:14.758Z,932.53
2017-06-09T03:01:42.768Z,932.54
2017-06-09T03:02:10.914Z,932.53
2017-06-09T03:02:39.086Z,932.54
2017-06-09T03:03:07.161Z,932.55
2017-06-09T03:03:35.382Z,932.49
2017-06-09T03:04:03.594Z,932.5
2017-06-09T03:04:31.669Z,932.51
2017-06-09T03:04:59.879Z,932.54
2017-06-09T03:05:27.978Z,932.54
2017-06-09T03:05:56.169Z,932.54
2017-06-09T03:06:24.360Z,932.56
2017-06-09T03:06:52.458Z,932.56
2017-06-09T03:07:20.532Z,932.53
2017-06-09T03:07:48.717Z,932.49
2017-06-09T03:08:16.921Z,932.47
2017-06-09T03:08:44.993Z,932.45
2017-06-09T03:09:13.194Z,932.47
2017-06-09T03:09:41.371Z,932.45
2017-06-09T03:10:09.549Z,932.45
2017-06-09T03:10:37.623Z,932.48
2017-06-09T03:11:05.856Z,932.49
2017-06-09T03:11:34.050Z,932.48
2017-06-09T03:12:02.233Z,932.51
2017-06-09T03:12:30.403Z,932.53
2017-06-09T03:12:58.591Z,932.53
2017-06-09T03:13:26.801Z,932.57
2017-06-09T03:13:54.981Z,932.52
2017-06-09T03:14:22.871Z,932.55
2017-06-09T03:14:51.049Z,932.59
2017-06-09T03:15:19.253Z,932.55
2017-06-09T03:15:47.481Z,932.57
2017-06-09T03:16:15.504Z,932.57
2017-06-09T03:16:43.669Z,932.55
2017-06-09T03:17:11.745Z,932.58
2017-06-09T03:17:39.940Z,932.57
2017-06-09T03:18:08.136Z,932.57
2017-06-09T03:18:36.236Z,932.55
2017-06-09T03:19:04.409Z,932.55
2017-06-09T03:19:32.570Z,932.52
2017-06-09T03:20:00.663Z,932.51
2017-06-09T03:20:28.755Z,932.55
2017-06-09T03:20:56.937Z,932.52
2017-06-09T03:21:24.992Z,932.55
2017-06-09T03:21:53.183Z,932.58
2017-06-09T03:22:21.380Z,932.58
2017-06-09T03:22:49.558Z,932.59
2017-06-09T03:23:17.658Z,932.56
2017-06-09T03:23:45.858Z,932.56
2017-06-09T03:24:14.051Z,932.56
2017-06-09T03:24:42.214Z,932.55
2017-06-09T03:25:10.367Z,932.53
2017-06-09T03:25:38.526Z,932.5
2017-06-09T03:26:06.625Z,932.48
2017-06-09T03:26:34.777Z,932.46
2017-06-09T03:27:02.825Z,932.42
2017-06-09T03:27:31.015Z,932.43
2017-06-09T03:27:59.190Z,932.43
2017-06-09T03:28:27.390Z,932.44
2017-06-09T03:28:55.432Z,932.41
2017-06-09T03:29:23.536Z,932.42
2017-06-09T03:29:51.727Z,932.4
2017-06-09T03:30:19.871Z,932.39
2017-06-09T03:30:47.859Z,932.43
2017-06-09T03:31:16.022Z,932.41
2017-06-09T03:31:44.181Z,932.4
2017-06-09T03:32:12.333Z,932.4
2017-06-09T03:32:40.398Z,932.44
2017-06-09T03:33:08.593Z,932.48
2017-06-09T03:33:36.771Z,932.44
2017-06-09T03:34:04.934Z,932.47
2017-06-09T03:34:33.083Z,932.48
2017-06-09T03:35:01.232Z,932.44
2017-06-09T03:35:29.374Z,932.49
2017-06-09T03:35:57.566Z,932.43
2017-06-09T03:36:25.629Z,932.43
2017-06-09T03:36:53.808Z,932.43
2017-06-09T03:37:21.972Z,932.42
2017-06-09T03:37:50.162Z,932.41
2017-06-09T03:38:18.336Z,932.38
2017-06-09T03:38:46.407Z,932.37
2017-06-09T03:39:14.589Z,932.39
2017-06-09T03:39:42.793Z,932.39
2017-06-09T03:40:10.890Z,932.37
2017-06-09T03:40:39.032Z,932.36
2017-06-09T03:41:07.163Z,932.36
2017-06-09T03:41:35.213Z,932.44
2017-06-09T03:42:03.389Z,932.46
2017-06-09T03:42:31.536Z,932.49
2017-06-09T03:42:59.707Z,932.47
2017-06-09T03:43:27.772Z,932.45
2017-06-09T03:43:55.963Z,932.44
2017-06-09T03:44:24.040Z,932.48
2017-06-09T03:44:52.146Z,932.49
2017-06-09T03:45:20.231Z,932.45
2017-06-09T03:45:48.413Z,932.44
2017-06-09T03:46:16.567Z,932.48
2017-06-09T03:46:44.722Z,932.49
2017-06-09T03:47:12.914Z,932.48
2017-06-09T03:47:41.002Z,932.46
2017-06-09T03:48:09.157Z,932.43
2017-06-09T03:48:37.248Z,932.47
2017-06-09T03:49:05.248Z,932.43
2017-06-09T03:49:33.433Z,932.41
2017-06-09T03:50:01.602Z,932.36
2017-06-09T03:50:29.685Z,932.33
2017-06-09T03:50:57.841Z,932.36
2017-06-09T03:51:26.034Z,932.39
2017-06-09T03:51:54.129Z,932.35
2017-06-09T03:52:22.319Z,932.35
2017-06-09T03:52:50.493Z,932.29
2017-06-09T03:53:18.654Z,932.34
2017-06-09T03:53:46.833Z,932.34
2017-06-09T03:54:14.984Z,932.35
2017-06-09T03:54:43.051Z,932.36
2017-06-09T03:55:11.219Z,932.33
2017-06-09T03:55:39.327Z,932.31
2017-06-09T03:56:07.492Z,932.32
2017-06-09T03:56:35.654Z,932.36
2017-06-09T03:57:03.831Z,932.29
2017-06-09T03:57:31.888Z,932.31
2017-06-09T03:58:00.049Z,932.32
2017-06-09T03:58:28.220Z,932.33
2017-06-09T03:58:56.376Z,932.35
2017-06-09T03:59:24.536Z,932.37
2017-06-09T03:59:52.620Z,932.37
2017-06-09T04:00:20.632Z,932.42
2017-06-09T04:00:48.817Z,932.39
2017-06-09T04:01:16.987Z,932.38
2017-06-09T04:01:45.039Z,932.4
2017-06-09T04:02:13.195Z,932.45
2017-06-09T04:02:41.377Z,932.43
2017-06-09T04:03:09.448Z,932.41
2017-06-09T04:03:37.352Z,932.43
2017-06-09T04:04:05.443Z,932.38
2017-06-09T04:04:33.582Z,932.37
2017-06-09T04:05:01.634Z,932.35
2017-06-09T04:05:29.800Z,932.39
2017-06-09T04:05:57.976Z,932.38
2017-06-09T04:06:26.146Z,932.41
2017-06-09T04:06:54.231Z,932.42
2017-06-09T04:07:22.423Z,932.42
2017-06-09T04:07:50.607Z,932.48
2017-06-09T04:08:18.678Z,932.45
2017-06-09T04:08:46.868Z,932.47
2017-06-09T04:09:14.926Z,932.49
2017-06-09T04:09:43.106Z,932.51
2017-06-09T04:10:11.104Z,932.53
2017-06-09T04:10:39.279Z,932.5
2017-06-09T04:11:07.358Z,932.51
2017-06-09T04:11:35.454Z,932.47
2017-06-09T04:12:03.618Z,932.5
2017-06-09T04:12:31.790Z,932.48
2017-06-09T04:12:59.868Z,932.48
2017-06-09T04:13:28.048Z,932.46
2017-06-09T04:13:56.229Z,932.43
2017-06-09T04:14:24.303Z,932.43
2017-06-09T04:14:52.467Z,932.41
2017-06-09T04:15:20.644Z,932.43
2017-06-09T04:15:48.824Z,932.43
2017-06-09T04:16:16.993Z,932.41
2017-06-09T04:16:45.064Z,932.43
2017-06-09T04:17:13.237Z,932.4
2017-06-09T04:17:41.294Z,932.43
2017-06-09T04:18:09.462Z,932.38
2017-06-09T04:18:37.554Z,932.39
2017-06-09T04:19:05.720Z,932.42
2017-06-09T04:19:33.804Z,932.4
2017-06-09T04:20:01.990Z,932.38
2017-06-09T04:20:30.177Z,932.37
2017-06-09T04:20:58.355Z,932.41
2017-06-09T04:21:26.392Z,932.4
2017-06-09T04:21:54.445Z,932.42
2017-06-09T04:22:22.608Z,932.4
2017-06-09T04:22:50.689Z,932.46
2017-06-09T04:23:18.854Z,932.48
2017-06-09T04:23:46.991Z,932.49
2017-06-09T04:24:15.173Z,932.47
2017-06-09T04:24:43.337Z,932.48
2017-06-09T04:25:11.403Z,932.48
2017-06-09T04:25:39.565Z,932.5
2017-06-09T04:26:07.657Z,932.54
2017-06-09T04:26:35.857Z,932.49
2017-06-09T04:27:04.027Z,932.52
2017-06-09T04:27:32.184Z,932.55
2017-06-09T04:28:00.324Z,932.52
2017-06-09T04:28:28.490Z,932.52
2017-06-09T04:28:56.677Z,932.5
2017-06-09T04:29:24.645Z,932.51
2017-06-09T04:29:52.782Z,932.5
2017-06-09T04:30:20.964Z,932.51
2017-06-09T04:30:49.115Z,932.5
2017-06-09T04:31:17.181Z,932.52
2017-06-09T04:31:45.270Z,932.49
2017-06-09T04:32:13.440Z,932.5
2017-06-09T04:32:41.617Z,932.52
2017-06-09T04:33:09.696Z,932.48
2017-06-09T04:33:37.786Z,932.48
2017-06-09T04:34:05.866Z,932.45
2017-06-09T04:34:33.910Z,932.44
2017-06-09T04:35:01.996Z,932.47
2017-06-09T04:35:30.083Z,932.44
2017-06-09T04:35:58.166Z,932.41
2017-06-09T04:36:26.229Z,932.46
2017-06-09T04:36:54.343Z,932.45
2017-06-09T04:37:22.419Z,932.44
2017-06-09T04:37:50.519Z,932.42
2017-06-09T04:38:18.621Z,932.43
2017-06-09T04:38:46.685Z,932.4
2017-06-09T04:39:14.845Z,932.38
2017-06-09T04:39:43.024Z,932.37
2017-06-09T04:40:11.189Z,932.37
2017-06-09T04:40:39.334Z,932.36
2017-06-09T04:41:07.423Z,932.32
2017-06-09T04:41:35.598Z,932.3
2017-06-09T04:42:03.766Z,932.24
2017-06-09T04:42:31.854Z,932.25
2017-06-09T04:42:59.919Z,932.26
2017-06-09T04:43:28.092Z,932.2
2017-06-09T04:43:56.261Z,932.2
2017-06-09T04:44:24.325Z,932.19
2017-06-09T04:44:52.484Z,932.24
2017-06-09T04:45:20.450Z,932.22
2017-06-09T04:45:48.444Z,932.23
2017-06-09T04:46:16.504Z,932.19
2017-06-09T04:46:44.576Z,932.16
2017-06-09T04:47:12.739Z,932.17
2017-06-09T04:47:40.844Z,932.13
2017-06-09T04:48:08.843Z,932.13
2017-06-09T04:48:36.916Z,932.14
2017-06-09T04:49:05.068Z,932.13
2017-06-09T04:49:33.155Z,932.15
2017-06-09T04:50:01.346Z,932.15
2017-06-09T04:50:29.231Z,932.14
2017-06-09T04:50:57.410Z,932.15
2017-06-09T04:51:25.575Z,932.13
2017-06-09T04:51:53.775Z,932.18
2017-06-09T04:52:21.849Z,932.21
2017-06-09T04:52:49.966Z,932.21
2017-06-09T04:53:18.170Z,932.18
2017-06-09T04:53:46.256Z,932.24
2017-06-09T04:54:14.415Z,932.23
2017-06-09T04:54:42.478Z,932.23
2017-06-09T04:55:10.657Z,932.21
2017-06-09T04:55:38.642Z,932.22
2017-06-09T04:56:06.840Z,932.17
2017-06-09T04:56:35.013Z,932.19
2017-06-09T04:57:03.193Z,932.15
2017-06-09T04:57:31.363Z,932.18
2017-06-09T04:57:59.528Z,932.17
2017-06-09T04:58:27.504Z,932.18
2017-06-09T04:58:55.675Z,932.18
2017-06-09T04:59:23.764Z,932.21
2017-06-09T04:59:51.926Z,932.16
2017-06-09T05:00:19.894Z,932.16
2017-06-09T05:00:47.962Z,932.12
2017-06-09T05:01:16.101Z,932.1
2017-06-09T05:01:44.270Z,932.1
2017-06-09T05:02:12.456Z,932.14
2017-06-09T05:02:40.508Z,932.11
2017-06-09T05:03:08.684Z,932.07
2017-06-09T05:03:36.867Z,932.07
2017-06-09T05:04:05.049Z,932.06
2017-06-09T05:04:33.015Z,932.04
2017-06-09T05:05:01.082Z,932.02
2017-06-09T05:05:29.157Z,931.99
2017-06-09T05:05:57.339Z,931.99
2017-06-09T05:06:25.402Z,931.97
2017-06-09T05:06:53.473Z,931.97
2017-06-09T05:07:21.629Z,931.93
2017-06-09T05:07:49.703Z,931.89
2017-06-09T05:08:17.785Z,931.91
2017-06-09T05:08:45.849Z,931.9
2017-06-09T05:09:13.921Z,931.9
2017-06-09T05:09:41.992Z,931.96
2017-06-09T05:10:10.143Z,931.9
2017-06-09T05:10:38.312Z,931.9
2017-06-09T05:11:06.484Z,931.87
2017-06-09T05:11:34.549Z,931.88
2017-06-09T05:12:02.729Z,931.91
2017-06-09T05:12:30.914Z,931.88
2017-06-09T05:12:58.948Z,931.9
2017-06-09T05:13:27.111Z,931.89
2017-06-09T05:13:55.277Z,931.89
2017-06-09T05:14:23.326Z,931.88
2017-06-09T05:14:51.508Z,931.9
2017-06-09T05:15:19.600Z,931.88
2017-06-09T05:15:47.760Z,931.91
2017-06-09T05:16:15.736Z,931.88
2017-06-09T05:16:43.904Z,931.89
2017-06-09T05:17:12.055Z,931.88
2017-06-09T05:17:40.205Z,931.9
2017-06-09T05:18:08.375Z,931.91
2017-06-09T05:18:36.553Z,931.93
2017-06-09T05:19:04.734Z,931.91
2017-06-09T05:19:32.903Z,931.88
2017-06-09T05:20:01.103Z,931.92
2017-06-09T05:20:29.285Z,931.91
2017-06-09T05:20:57.453Z,931.91
2017-06-09T05:21:25.626Z,931.91
2017-06-09T05:21:53.709Z,931.92
2017-06-09T05:22:21.885Z,931.88
2017-06-09T05:22:50.099Z,931.87
2017-06-09T05:23:18.262Z,931.9
2017-06-09T05:23:46.350Z,931.88
2017-06-09T05:24:14.525Z,931.9
2017-06-09T05:24:42.726Z,931.87
2017-06-09T05:25:10.738Z,931.92
2017-06-09T05:25:38.891Z,931.89
2017-06-09T05:26:07.059Z,931.89
2017-06-09T05:26:35.117Z,931.87
2017-06-09T05:27:03.299Z,931.84
2017-06-09T05:27:31.375Z,931.83
2017-06-09T05:27:59.539Z,931.85
2017-06-09T05:28:27.723Z,931.81
2017-06-09T05:28:55.908Z,931.84
2017-06-09T05:29:24.053Z,931.81
2017-06-09T05:29:52.223Z,931.8
2017-06-09T05:30:20.097Z,931.77
2017-06-09T05:30:48.283Z,931.79
2017-06-09T05:31:16.350Z,931.74
2017-06-09T05:31:44.500Z,931.74
2017-06-09T05:32:12.677Z,931.78
2017-06-09T05:32:40.739Z,931.71
2017-06-09T05:33:08.716Z,931.68
2017-06-09T05:33:36.894Z,931.7
2017-06-09T05:34:05.028Z,931.69
2017-06-09T05:34:33.169Z,931.68
2017-06-09T05:35:01.345Z,931.63
2017-06-09T05:35:29.512Z,931.69
2017-06-09T05:35:57.571Z,931.67
2017-06-09T05:36:25.642Z,931.68
2017-06-09T05:36:53.729Z,931.66
2017-06-09T05:37:21.776Z,931.62
2017-06-09T05:37:49.934Z,931.66
2017-06-09T05:38:18.013Z,931.65
2017-06-09T05:38:46.251Z,931.61
2017-06-09T05:39:14.840Z,931.63
2017-06-09T05:39:43.509Z,931.64
2017-06-09T05:40:12.111Z,931.64
2017-06-09T05:40:40.698Z,931.65
2017-06-09T05:41:09.305Z,931.64
2017-06-09T05:41:37.926Z,931.68
2017-06-09T05:42:06.414Z,931.66
2017-06-09T05:42:35.019Z,931.66
2017-06-09T05:43:03.507Z,931.65
2017-06-09T05:43:32.112Z,931.63
2017-06-09T05:44:00.649Z,931.66
2017-06-09T05:44:29.292Z,931.66
2017-06-09T05:44:57.775Z,931.62
2017-06-09T05:45:26.391Z,931.65
2017-06-09T05:45:54.992Z,931.64
2017-06-09T05:46:23.491Z,931.64
2017-06-09T05:46:52.017Z,931.65
2017-06-09T05:47:20.612Z,931.63
2017-06-09T05:47:49.029Z,931.6
2017-06-09T05:48:17.515Z,931.65
2017-06-09T05:48:46.024Z,931.65
2017-06-09T05:49:14.609Z,931.64
2017-06-09T05:49:43.203Z,931.62
2017-06-09T05:50:11.791Z,931.58
2017-06-09T05:50:40.290Z,931.6
2017-06-09T05:51:08.871Z,931.57
2017-06-09T05:51:37.478Z,931.56
2017-06-09T05:52:06.061Z,931.53
2017-06-09T05:52:34.678Z,931.56
2017-06-09T05:53:03.084Z,931.54